sensor_id;sensor_type;location;lat;lon;timestamp;pressure;altitude;pressure_sealevel;temperature;humidity
51239;BME280;38154;47.548;18.828;2023-08-07T00:00:35;97983.56;;;14.38;100.00
51239;BME280;38154;47.548;18.828;2023-08-07T00:03:01;97981.59;;;14.46;100.00
51239;BME280;38154;47.548;18.828;2023-08-07T00:05:27;97986.06;;;14.42;100.00
51239;BME280;38154;47.548;18.828;2023-08-07T00:07:52;97980.81;;;14.42;100.00
51239;BME280;38154;47.548;18.828;2023-08-07T00:10:18;97973.91;;;14.40;100.00
51239;BME280;38154;47.548;18.828;2023-08-07T00:12:44;97971.09;;;14.46;100.00
51239;BME280;38154;47.548;18.828;2023-08-07T00:15:10;97967.47;;;14.52;100.00
51239;BME280;38154;47.548;18.828;2023-08-07T00:17:37;97974.56;;;14.48;100.00
51239;BME280;38154;47.548;18.828;2023-08-07T00:20:04;97965.69;;;14.52;100.00
51239;BME280;38154;47.548;18.828;2023-08-07T00:22:30;97964.91;;;14.48;100.00
51239;BME280;38154;47.548;18.828;2023-08-07T00:24:56;97960.72;;;14.43;100.00
51239;BME280;38154;47.548;18.828;2023-08-07T00:27:21;97966.06;;;14.38;100.00
51239;BME280;38154;47.548;18.828;2023-08-07T00:29:47;97969.19;;;14.51;100.00
51239;BME280;38154;47.548;18.828;2023-08-07T00:32:13;97958.84;;;14.46;100.00
51239;BME280;38154;47.548;18.828;2023-08-07T00:34:39;97966.72;;;14.46;100.00
51239;BME280;38154;47.548;18.828;2023-08-07T00:37:05;97970.94;;;14.52;100.00
51239;BME280;38154;47.548;18.828;2023-08-07T00:39:31;97971.25;;;14.41;100.00
51239;BME280;38154;47.548;18.828;2023-08-07T00:41:57;97972.78;;;14.48;100.00
51239;BME280;38154;47.548;18.828;2023-08-07T00:44:23;97987.88;;;14.40;100.00
51239;BME280;38154;47.548;18.828;2023-08-07T00:46:49;97982.63;;;14.40;100.00
51239;BME280;38154;47.548;18.828;2023-08-07T00:49:15;97993.12;;;14.40;100.00
51239;BME280;38154;47.548;18.828;2023-08-07T00:51:42;97994.19;;;14.33;100.00
51239;BME280;38154;47.548;18.828;2023-08-07T00:54:10;97978.56;;;14.28;100.00
51239;BME280;38154;47.548;18.828;2023-08-07T00:56:37;97983.88;;;14.25;100.00
51239;BME280;38154;47.548;18.828;2023-08-07T00:59:04;97971.28;;;14.40;100.00
51239;BME280;38154;47.548;18.828;2023-08-07T01:01:30;97968.69;;;14.38;100.00
51239;BME280;38154;47.548;18.828;2023-08-07T01:03:56;97973.63;;;14.49;100.00
51239;BME280;38154;47.548;18.828;2023-08-07T01:06:22;97964.97;;;14.47;100.00
51239;BME280;38154;47.548;18.828;2023-08-07T01:08:48;97971.44;;;14.34;100.00
51239;BME280;38154;47.548;18.828;2023-08-07T01:16:44;97983.56;;;14.38;100.00
51239;BME280;38154;47.548;18.828;2023-08-07T01:19:24;97982.75;;;14.36;100.00
51239;BME280;38154;47.548;18.828;2023-08-07T01:22:06;97981.00;;;14.36;100.00
51239;BME280;38154;47.548;18.828;2023-08-07T01:24:32;97980.87;;;14.39;100.00
51239;BME280;38154;47.548;18.828;2023-08-07T01:27:07;97977.34;;;14.42;100.00
51239;BME280;38154;47.548;18.828;2023-08-07T01:32:24;97993.94;;;14.42;100.00
51239;BME280;38154;47.548;18.828;2023-08-07T01:34:53;97997.59;;;14.37;100.00
51239;BME280;38154;47.548;18.828;2023-08-07T01:37:21;97995.13;;;14.31;100.00
51239;BME280;38154;47.548;18.828;2023-08-07T01:39:48;98004.53;;;14.38;100.00
51239;BME280;38154;47.548;18.828;2023-08-07T01:42:15;97999.41;;;14.35;100.00
51239;BME280;38154;47.548;18.828;2023-08-07T01:44:41;98007.13;;;14.39;100.00
51239;BME280;38154;47.548;18.828;2023-08-07T01:47:07;98006.31;;;14.37;100.00
51239;BME280;38154;47.548;18.828;2023-08-07T01:49:33;98007.47;;;14.25;100.00
51239;BME280;38154;47.548;18.828;2023-08-07T01:51:59;98004.97;;;14.21;100.00
51239;BME280;38154;47.548;18.828;2023-08-07T01:54:24;98006.00;;;14.15;100.00
51239;BME280;38154;47.548;18.828;2023-08-07T01:56:50;98001.63;;;14.16;100.00
51239;BME280;38154;47.548;18.828;2023-08-07T01:59:16;98007.88;;;14.10;100.00
51239;BME280;38154;47.548;18.828;2023-08-07T02:01:42;98003.56;;;14.07;100.00
51239;BME280;38154;47.548;18.828;2023-08-07T02:04:08;98014.69;;;14.17;100.00
51239;BME280;38154;47.548;18.828;2023-08-07T02:06:34;98008.62;;;14.15;100.00
51239;BME280;38154;47.548;18.828;2023-08-07T02:08:59;98004.41;;;14.09;100.00
51239;BME280;38154;47.548;18.828;2023-08-07T02:11:25;98000.06;;;14.08;100.00
51239;BME280;38154;47.548;18.828;2023-08-07T02:13:51;98006.13;;;14.10;100.00
51239;BME280;38154;47.548;18.828;2023-08-07T02:16:17;98000.69;;;14.18;100.00
51239;BME280;38154;47.548;18.828;2023-08-07T02:18:43;97997.44;;;14.08;100.00
51239;BME280;38154;47.548;18.828;2023-08-07T02:21:09;98000.84;;;14.12;100.00
51239;BME280;38154;47.548;18.828;2023-08-07T02:23:35;97998.31;;;14.07;100.00
51239;BME280;38154;47.548;18.828;2023-08-07T02:26:01;97999.16;;;14.09;100.00
51239;BME280;38154;47.548;18.828;2023-08-07T02:28:27;98003.34;;;14.17;100.00
51239;BME280;38154;47.548;18.828;2023-08-07T02:30:53;98005.25;;;14.10;100.00
51239;BME280;38154;47.548;18.828;2023-08-07T02:33:20;98007.91;;;14.08;100.00
51239;BME280;38154;47.548;18.828;2023-08-07T02:35:45;98022.91;;;14.03;100.00
51239;BME280;38154;47.548;18.828;2023-08-07T02:38:11;98006.41;;;14.00;100.00
51239;BME280;38154;47.548;18.828;2023-08-07T02:40:37;98013.47;;;13.96;100.00
51239;BME280;38154;47.548;18.828;2023-08-07T02:43:03;98007.44;;;13.92;100.00
51239;BME280;38154;47.548;18.828;2023-08-07T02:45:29;98008.38;;;13.90;100.00
51239;BME280;38154;47.548;18.828;2023-08-07T02:47:55;98012.25;;;13.73;100.00
51239;BME280;38154;47.548;18.828;2023-08-07T02:50:21;98015.25;;;13.58;100.00
51239;BME280;38154;47.548;18.828;2023-08-07T02:52:46;98011.69;;;13.61;100.00
51239;BME280;38154;47.548;18.828;2023-08-07T02:55:12;98007.47;;;13.53;100.00
51239;BME280;38154;47.548;18.828;2023-08-07T02:57:38;98016.25;;;13.52;100.00
51239;BME280;38154;47.548;18.828;2023-08-07T03:00:05;98015.38;;;13.52;100.00
51239;BME280;38154;47.548;18.828;2023-08-07T03:02:31;98005.09;;;13.44;100.00
51239;BME280;38154;47.548;18.828;2023-08-07T03:04:57;98012.06;;;13.44;100.00
51239;BME280;38154;47.548;18.828;2023-08-07T03:07:23;98005.28;;;13.35;100.00
51239;BME280;38154;47.548;18.828;2023-08-07T03:09:49;98004.50;;;13.30;100.00
51239;BME280;38154;47.548;18.828;2023-08-07T03:12:15;98014.31;;;13.20;100.00
51239;BME280;38154;47.548;18.828;2023-08-07T03:14:41;98011.75;;;13.17;100.00
51239;BME280;38154;47.548;18.828;2023-08-07T03:17:07;98008.22;;;13.20;100.00
51239;BME280;38154;47.548;18.828;2023-08-07T03:19:33;98004.84;;;13.14;100.00
51239;BME280;38154;47.548;18.828;2023-08-07T03:21:58;98016.41;;;13.04;100.00
51239;BME280;38154;47.548;18.828;2023-08-07T03:24:24;98017.13;;;13.11;100.00
51239;BME280;38154;47.548;18.828;2023-08-07T03:26:50;98011.97;;;13.08;100.00
51239;BME280;38154;47.548;18.828;2023-08-07T03:29:16;98022.34;;;13.12;100.00
51239;BME280;38154;47.548;18.828;2023-08-07T03:31:42;98025.03;;;13.08;100.00
51239;BME280;38154;47.548;18.828;2023-08-07T03:34:08;98022.44;;;13.06;100.00
51239;BME280;38154;47.548;18.828;2023-08-07T03:36:34;98022.38;;;13.11;100.00
51239;BME280;38154;47.548;18.828;2023-08-07T03:39:00;98025.94;;;13.07;100.00
51239;BME280;38154;47.548;18.828;2023-08-07T03:41:26;98022.50;;;13.05;100.00
51239;BME280;38154;47.548;18.828;2023-08-07T03:43:52;98021.56;;;13.07;100.00
51239;BME280;38154;47.548;18.828;2023-08-07T03:46:18;98026.91;;;13.03;100.00
51239;BME280;38154;47.548;18.828;2023-08-07T03:48:44;98023.56;;;12.94;100.00
51239;BME280;38154;47.548;18.828;2023-08-07T03:51:10;98029.69;;;12.93;100.00
51239;BME280;38154;47.548;18.828;2023-08-07T03:53:37;98037.44;;;12.98;100.00
51239;BME280;38154;47.548;18.828;2023-08-07T03:56:03;98031.94;;;13.10;100.00
51239;BME280;38154;47.548;18.828;2023-08-07T03:58:29;98035.63;;;13.02;100.00
51239;BME280;38154;47.548;18.828;2023-08-07T04:00:55;98043.56;;;12.97;100.00
51239;BME280;38154;47.548;18.828;2023-08-07T04:03:21;98044.63;;;12.88;100.00
51239;BME280;38154;47.548;18.828;2023-08-07T04:05:51;98045.53;;;12.87;100.00
51239;BME280;38154;47.548;18.828;2023-08-07T04:08:17;98046.31;;;12.91;100.00
51239;BME280;38154;47.548;18.828;2023-08-07T04:10:43;98048.78;;;12.97;100.00
51239;BME280;38154;47.548;18.828;2023-08-07T04:13:09;98058.22;;;13.07;100.00
51239;BME280;38154;47.548;18.828;2023-08-07T04:15:35;98048.41;;;13.17;100.00
51239;BME280;38154;47.548;18.828;2023-08-07T04:18:00;98059.72;;;13.19;100.00
51239;BME280;38154;47.548;18.828;2023-08-07T04:20:26;98060.00;;;13.04;100.00
51239;BME280;38154;47.548;18.828;2023-08-07T04:22:52;98062.22;;;13.24;100.00
51239;BME280;38154;47.548;18.828;2023-08-07T04:25:18;98060.47;;;13.24;100.00
51239;BME280;38154;47.548;18.828;2023-08-07T04:27:44;98066.47;;;13.32;100.00
51239;BME280;38154;47.548;18.828;2023-08-07T04:30:10;98075.84;;;13.43;100.00
51239;BME280;38154;47.548;18.828;2023-08-07T04:32:36;98075.69;;;13.49;100.00
51239;BME280;38154;47.548;18.828;2023-08-07T04:35:02;98068.59;;;13.54;100.00
51239;BME280;38154;47.548;18.828;2023-08-07T04:37:28;98075.28;;;13.67;100.00
51239;BME280;38154;47.548;18.828;2023-08-07T04:39:56;98070.72;;;13.76;100.00
51239;BME280;38154;47.548;18.828;2023-08-07T04:42:22;98064.56;;;13.78;100.00
51239;BME280;38154;47.548;18.828;2023-08-07T04:44:48;98067.03;;;13.86;100.00
51239;BME280;38154;47.548;18.828;2023-08-07T04:47:14;98072.72;;;14.03;100.00
51239;BME280;38154;47.548;18.828;2023-08-07T04:49:40;98066.47;;;14.07;100.00
51239;BME280;38154;47.548;18.828;2023-08-07T04:52:06;98073.91;;;14.26;100.00
51239;BME280;38154;47.548;18.828;2023-08-07T04:54:32;98078.09;;;14.33;100.00
51239;BME280;38154;47.548;18.828;2023-08-07T04:56:57;98077.25;;;14.31;100.00
51239;BME280;38154;47.548;18.828;2023-08-07T04:59:23;98072.37;;;14.52;100.00
51239;BME280;38154;47.548;18.828;2023-08-07T05:01:49;98075.34;;;14.74;100.00
51239;BME280;38154;47.548;18.828;2023-08-07T05:04:15;98072.31;;;14.88;100.00
51239;BME280;38154;47.548;18.828;2023-08-07T05:06:41;98070.34;;;14.96;100.00
51239;BME280;38154;47.548;18.828;2023-08-07T05:09:07;98070.13;;;15.35;100.00
51239;BME280;38154;47.548;18.828;2023-08-07T05:11:33;98057.53;;;15.76;100.00
51239;BME280;38154;47.548;18.828;2023-08-07T05:13:59;98069.03;;;16.27;98.76
51239;BME280;38154;47.548;18.828;2023-08-07T05:16:25;98069.22;;;16.74;95.87
51239;BME280;38154;47.548;18.828;2023-08-07T05:18:51;98068.19;;;16.53;92.49
51239;BME280;38154;47.548;18.828;2023-08-07T05:21:17;98060.72;;;16.41;93.66
51239;BME280;38154;47.548;18.828;2023-08-07T05:23:42;98070.69;;;16.31;94.76
51239;BME280;38154;47.548;18.828;2023-08-07T05:26:09;98068.75;;;16.09;95.54
51239;BME280;38154;47.548;18.828;2023-08-07T05:28:35;98072.44;;;16.04;95.19
51239;BME280;38154;47.548;18.828;2023-08-07T05:31:01;98075.75;;;16.10;94.00
51239;BME280;38154;47.548;18.828;2023-08-07T05:33:26;98081.25;;;16.29;93.62
51239;BME280;38154;47.548;18.828;2023-08-07T05:35:52;98085.19;;;16.16;93.53
51239;BME280;38154;47.548;18.828;2023-08-07T05:38:18;98082.91;;;16.05;93.09
51239;BME280;38154;47.548;18.828;2023-08-07T05:40:44;98086.91;;;16.17;95.34
51239;BME280;38154;47.548;18.828;2023-08-07T05:43:10;98096.84;;;16.09;90.93
51239;BME280;38154;47.548;18.828;2023-08-07T05:45:38;98095.19;;;16.05;92.37
51239;BME280;38154;47.548;18.828;2023-08-07T05:48:04;98097.09;;;16.00;92.70
51239;BME280;38154;47.548;18.828;2023-08-07T05:50:30;98108.78;;;15.91;94.97
51239;BME280;38154;47.548;18.828;2023-08-07T05:52:56;98098.34;;;15.88;94.28
51239;BME280;38154;47.548;18.828;2023-08-07T05:55:21;98102.47;;;15.97;93.13
51239;BME280;38154;47.548;18.828;2023-08-07T05:57:47;98119.00;;;16.00;92.25
51239;BME280;38154;47.548;18.828;2023-08-07T06:00:15;98115.91;;;16.16;90.84
51239;BME280;38154;47.548;18.828;2023-08-07T06:02:43;98121.50;;;16.05;89.14
51239;BME280;38154;47.548;18.828;2023-08-07T06:05:09;98125.63;;;16.12;91.91
51239;BME280;38154;47.548;18.828;2023-08-07T06:07:37;98132.25;;;15.97;90.74
51239;BME280;38154;47.548;18.828;2023-08-07T06:10:04;98133.44;;;15.87;91.50
51239;BME280;38154;47.548;18.828;2023-08-07T06:12:30;98136.22;;;15.82;91.98
51239;BME280;38154;47.548;18.828;2023-08-07T06:14:56;98133.69;;;15.79;92.45
51239;BME280;38154;47.548;18.828;2023-08-07T06:17:22;98128.44;;;15.48;94.33
51239;BME280;38154;47.548;18.828;2023-08-07T06:19:48;98137.34;;;15.42;95.78
51239;BME280;38154;47.548;18.828;2023-08-07T06:22:14;98135.41;;;15.49;91.76
51239;BME280;38154;47.548;18.828;2023-08-07T06:24:40;98142.47;;;15.47;94.02
51239;BME280;38154;47.548;18.828;2023-08-07T06:27:06;98133.56;;;15.52;95.08
51239;BME280;38154;47.548;18.828;2023-08-07T06:29:31;98139.38;;;15.64;93.76
51239;BME280;38154;47.548;18.828;2023-08-07T06:31:57;98133.87;;;15.71;91.80
51239;BME280;38154;47.548;18.828;2023-08-07T06:34:23;98143.34;;;15.79;91.66
51239;BME280;38154;47.548;18.828;2023-08-07T06:36:49;98146.53;;;15.88;91.99
51239;BME280;38154;47.548;18.828;2023-08-07T06:39:15;98139.84;;;15.78;87.58
51239;BME280;38154;47.548;18.828;2023-08-07T06:41:41;98146.88;;;15.77;89.39
51239;BME280;38154;47.548;18.828;2023-08-07T06:44:07;98148.69;;;15.75;90.11
51239;BME280;38154;47.548;18.828;2023-08-07T06:46:33;98154.81;;;15.74;91.57
51239;BME280;38154;47.548;18.828;2023-08-07T06:48:59;98152.03;;;15.81;90.80
51239;BME280;38154;47.548;18.828;2023-08-07T06:51:25;98155.25;;;15.90;92.73
51239;BME280;38154;47.548;18.828;2023-08-07T06:53:51;98159.16;;;16.05;88.69
51239;BME280;38154;47.548;18.828;2023-08-07T06:56:16;98167.50;;;16.20;91.10
51239;BME280;38154;47.548;18.828;2023-08-07T06:58:42;98172.56;;;16.26;89.14
51239;BME280;38154;47.548;18.828;2023-08-07T07:01:08;98165.31;;;16.34;88.24
51239;BME280;38154;47.548;18.828;2023-08-07T07:03:34;98168.12;;;16.28;87.81
51239;BME280;38154;47.548;18.828;2023-08-07T07:06:00;98166.97;;;16.37;87.15
51239;BME280;38154;47.548;18.828;2023-08-07T07:08:26;98173.69;;;16.45;86.87
51239;BME280;38154;47.548;18.828;2023-08-07T07:10:52;98172.13;;;16.66;84.88
51239;BME280;38154;47.548;18.828;2023-08-07T07:13:18;98173.06;;;16.92;84.48
51239;BME280;38154;47.548;18.828;2023-08-07T07:15:44;98175.34;;;17.28;81.57
51239;BME280;38154;47.548;18.828;2023-08-07T07:18:10;98175.16;;;17.58;83.87
51239;BME280;38154;47.548;18.828;2023-08-07T07:20:35;98164.66;;;17.56;81.19
51239;BME280;38154;47.548;18.828;2023-08-07T07:23:01;98181.50;;;17.52;84.14
51239;BME280;38154;47.548;18.828;2023-08-07T07:25:27;98185.31;;;17.92;79.44
51239;BME280;38154;47.548;18.828;2023-08-07T07:27:53;98191.06;;;18.26;81.37
51239;BME280;38154;47.548;18.828;2023-08-07T07:30:19;98180.28;;;18.54;75.86
51239;BME280;38154;47.548;18.828;2023-08-07T07:32:46;98194.03;;;18.84;75.62
51239;BME280;38154;47.548;18.828;2023-08-07T07:35:11;98196.44;;;19.32;71.05
51239;BME280;38154;47.548;18.828;2023-08-07T07:37:37;98202.19;;;19.41;71.75
51239;BME280;38154;47.548;18.828;2023-08-07T07:40:04;98206.16;;;19.71;71.91
51239;BME280;38154;47.548;18.828;2023-08-07T07:42:30;98206.59;;;20.20;70.66
51239;BME280;38154;47.548;18.828;2023-08-07T07:44:55;98208.31;;;20.21;66.42
51239;BME280;38154;47.548;18.828;2023-08-07T07:47:21;98198.59;;;21.29;62.22
51239;BME280;38154;47.548;18.828;2023-08-07T07:49:47;98200.63;;;22.09;61.33
51239;BME280;38154;47.548;18.828;2023-08-07T07:52:13;98195.03;;;22.31;60.85
51239;BME280;38154;47.548;18.828;2023-08-07T07:54:39;98201.66;;;22.06;58.35
51239;BME280;38154;47.548;18.828;2023-08-07T07:57:05;98211.72;;;22.49;56.50
51239;BME280;38154;47.548;18.828;2023-08-07T07:59:31;98216.84;;;23.14;55.37
51239;BME280;38154;47.548;18.828;2023-08-07T08:01:57;98221.25;;;24.03;53.03
51239;BME280;38154;47.548;18.828;2023-08-07T08:04:23;98221.91;;;25.17;49.14
51239;BME280;38154;47.548;18.828;2023-08-07T08:06:49;98229.34;;;25.26;48.78
51239;BME280;38154;47.548;18.828;2023-08-07T08:09:15;98227.97;;;25.46;45.86
51239;BME280;38154;47.548;18.828;2023-08-07T08:11:41;98227.06;;;24.24;47.13
51239;BME280;38154;47.548;18.828;2023-08-07T08:14:07;98238.47;;;23.24;52.12
51239;BME280;38154;47.548;18.828;2023-08-07T08:16:33;98232.81;;;22.52;53.66
51239;BME280;38154;47.548;18.828;2023-08-07T08:18:58;98231.59;;;22.41;51.69
51239;BME280;38154;47.548;18.828;2023-08-07T08:21:24;98238.72;;;22.73;50.84
51239;BME280;38154;47.548;18.828;2023-08-07T08:23:50;98234.69;;;22.34;53.13
51239;BME280;38154;47.548;18.828;2023-08-07T08:26:16;98236.00;;;22.09;54.83
51239;BME280;38154;47.548;18.828;2023-08-07T08:28:42;98247.81;;;22.03;53.74
51239;BME280;38154;47.548;18.828;2023-08-07T08:31:08;98255.69;;;22.05;56.23
51239;BME280;38154;47.548;18.828;2023-08-07T08:33:34;98255.00;;;21.68;56.71
51239;BME280;38154;47.548;18.828;2023-08-07T08:36:00;98261.63;;;21.07;57.59
51239;BME280;38154;47.548;18.828;2023-08-07T08:38:26;98254.56;;;20.88;61.81
51239;BME280;38154;47.548;18.828;2023-08-07T08:41:01;98259.72;;;20.91;61.57
51239;BME280;38154;47.548;18.828;2023-08-07T08:43:29;98273.34;;;20.84;62.00
51239;BME280;38154;47.548;18.828;2023-08-07T08:46:00;98269.84;;;20.45;61.57
51239;BME280;38154;47.548;18.828;2023-08-07T08:48:27;98267.34;;;20.23;60.75
51239;BME280;38154;47.548;18.828;2023-08-07T08:50:57;98278.56;;;20.28;59.37
51239;BME280;38154;47.548;18.828;2023-08-07T08:53:23;98276.41;;;20.55;62.60
51239;BME280;38154;47.548;18.828;2023-08-07T08:55:50;98281.16;;;20.87;60.28
51239;BME280;38154;47.548;18.828;2023-08-07T08:58:17;98290.12;;;22.07;58.15
51239;BME280;38154;47.548;18.828;2023-08-07T09:00:45;98292.38;;;22.14;56.47
51239;BME280;38154;47.548;18.828;2023-08-07T09:03:11;98290.12;;;22.07;56.05
51239;BME280;38154;47.548;18.828;2023-08-07T09:05:39;98289.38;;;21.35;58.00
51239;BME280;38154;47.548;18.828;2023-08-07T09:08:05;98290.66;;;20.91;59.43
51239;BME280;38154;47.548;18.828;2023-08-07T09:10:32;98298.56;;;20.73;59.71
51239;BME280;38154;47.548;18.828;2023-08-07T09:13:01;98299.28;;;20.58;61.22
51239;BME280;38154;47.548;18.828;2023-08-07T09:15:30;98291.75;;;20.68;62.21
51239;BME280;38154;47.548;18.828;2023-08-07T09:17:57;98285.03;;;20.42;59.06
51239;BME280;38154;47.548;18.828;2023-08-07T09:20:25;98293.50;;;20.29;62.16
51239;BME280;38154;47.548;18.828;2023-08-07T09:22:50;98303.53;;;21.35;57.82
51239;BME280;38154;47.548;18.828;2023-08-07T09:25:33;98298.88;;;21.58;55.99
51239;BME280;38154;47.548;18.828;2023-08-07T09:28:03;98314.91;;;23.04;52.80
51239;BME280;38154;47.548;18.828;2023-08-07T09:30:30;98320.50;;;23.00;51.18
51239;BME280;38154;47.548;18.828;2023-08-07T09:32:57;98313.81;;;22.76;53.19
51239;BME280;38154;47.548;18.828;2023-08-07T09:35:23;98320.81;;;23.41;50.69
51239;BME280;38154;47.548;18.828;2023-08-07T09:37:50;98334.84;;;24.04;49.39
51239;BME280;38154;47.548;18.828;2023-08-07T09:40:17;98341.22;;;24.16;49.93
51239;BME280;38154;47.548;18.828;2023-08-07T09:42:44;98345.59;;;23.72;49.80
51239;BME280;38154;47.548;18.828;2023-08-07T09:45:20;98347.69;;;23.37;49.36
51239;BME280;38154;47.548;18.828;2023-08-07T09:47:46;98338.09;;;23.18;52.04
51239;BME280;38154;47.548;18.828;2023-08-07T09:50:15;98339.72;;;22.73;51.98
51239;BME280;38154;47.548;18.828;2023-08-07T09:52:41;98341.69;;;21.85;54.53
51239;BME280;38154;47.548;18.828;2023-08-07T09:55:07;98349.97;;;21.25;58.03
51239;BME280;38154;47.548;18.828;2023-08-07T09:57:33;98352.50;;;20.91;59.62
51239;BME280;38154;47.548;18.828;2023-08-07T09:59:59;98357.94;;;20.88;57.56
51239;BME280;38154;47.548;18.828;2023-08-07T10:02:26;98345.75;;;20.84;60.11
51239;BME280;38154;47.548;18.828;2023-08-07T10:04:52;98342.81;;;20.90;60.02
51239;BME280;38154;47.548;18.828;2023-08-07T10:07:19;98352.94;;;20.63;58.87
51239;BME280;38154;47.548;18.828;2023-08-07T10:09:46;98354.72;;;20.23;59.48
51239;BME280;38154;47.548;18.828;2023-08-07T10:12:13;98349.47;;;19.60;63.27
51239;BME280;38154;47.548;18.828;2023-08-07T10:14:40;98354.84;;;19.79;61.60
51239;BME280;38154;47.548;18.828;2023-08-07T10:17:07;98343.09;;;20.65;59.60
51239;BME280;38154;47.548;18.828;2023-08-07T10:19:33;98344.12;;;20.82;57.89
51239;BME280;38154;47.548;18.828;2023-08-07T10:21:59;98346.91;;;20.79;56.67
51239;BME280;38154;47.548;18.828;2023-08-07T10:24:25;98343.12;;;21.57;56.34
51239;BME280;38154;47.548;18.828;2023-08-07T10:26:52;98349.09;;;21.78;54.96
51239;BME280;38154;47.548;18.828;2023-08-07T10:29:19;98353.72;;;21.57;54.95
51239;BME280;38154;47.548;18.828;2023-08-07T10:31:47;98355.63;;;20.81;56.16
51239;BME280;38154;47.548;18.828;2023-08-07T10:34:13;98367.72;;;20.67;58.02
51239;BME280;38154;47.548;18.828;2023-08-07T10:36:39;98370.03;;;20.35;60.39
51239;BME280;38154;47.548;18.828;2023-08-07T10:41:46;98368.81;;;19.40;65.28
51239;BME280;38154;47.548;18.828;2023-08-07T10:46:51;98385.97;;;19.72;66.49
51239;BME280;38154;47.548;18.828;2023-08-07T10:49:40;98390.19;;;19.98;65.24
51239;BME280;38154;47.548;18.828;2023-08-07T10:52:09;98386.75;;;19.54;64.42
51239;BME280;38154;47.548;18.828;2023-08-07T10:54:46;98393.06;;;19.72;67.34
51239;BME280;38154;47.548;18.828;2023-08-07T10:57:14;98392.37;;;19.67;65.24
51239;BME280;38154;47.548;18.828;2023-08-07T11:02:25;98392.09;;;19.74;63.86
51239;BME280;38154;47.548;18.828;2023-08-07T11:04:52;98388.38;;;19.36;66.23
51239;BME280;38154;47.548;18.828;2023-08-07T11:07:25;98393.34;;;19.43;68.44
51239;BME280;38154;47.548;18.828;2023-08-07T11:09:53;98386.41;;;19.83;68.18
51239;BME280;38154;47.548;18.828;2023-08-07T11:12:19;98390.94;;;19.59;66.81
51239;BME280;38154;47.548;18.828;2023-08-07T11:14:46;98379.47;;;19.59;65.22
51239;BME280;38154;47.548;18.828;2023-08-07T11:17:12;98391.78;;;19.60;65.37
51239;BME280;38154;47.548;18.828;2023-08-07T11:19:38;98381.94;;;19.63;65.05
51239;BME280;38154;47.548;18.828;2023-08-07T11:22:05;98400.59;;;19.38;65.97
51239;BME280;38154;47.548;18.828;2023-08-07T11:24:31;98392.03;;;18.64;66.78
51239;BME280;38154;47.548;18.828;2023-08-07T11:26:57;98389.12;;;18.23;69.65
51239;BME280;38154;47.548;18.828;2023-08-07T11:29:24;98381.53;;;18.62;70.57
51239;BME280;38154;47.548;18.828;2023-08-07T11:31:51;98395.94;;;19.23;68.94
51239;BME280;38154;47.548;18.828;2023-08-07T11:34:17;98403.75;;;20.11;67.60
51239;BME280;38154;47.548;18.828;2023-08-07T11:36:45;98396.50;;;20.35;64.70
51239;BME280;38154;47.548;18.828;2023-08-07T11:39:13;98402.78;;;20.53;64.07
51239;BME280;38154;47.548;18.828;2023-08-07T11:41:39;98410.81;;;20.11;66.01
51239;BME280;38154;47.548;18.828;2023-08-07T11:44:09;98409.00;;;20.52;67.47
51239;BME280;38154;47.548;18.828;2023-08-07T11:46:35;98414.53;;;20.07;65.41
51239;BME280;38154;47.548;18.828;2023-08-07T11:49:01;98410.69;;;19.93;68.15
51239;BME280;38154;47.548;18.828;2023-08-07T11:51:29;98402.94;;;19.89;66.11
51239;BME280;38154;47.548;18.828;2023-08-07T11:53:55;98401.50;;;19.15;69.24
51239;BME280;38154;47.548;18.828;2023-08-07T11:56:24;98403.88;;;19.23;70.12
51239;BME280;38154;47.548;18.828;2023-08-07T11:58:52;98397.66;;;19.24;69.09
51239;BME280;38154;47.548;18.828;2023-08-07T12:01:23;98392.75;;;19.57;69.44
51239;BME280;38154;47.548;18.828;2023-08-07T12:06:15;98386.03;;;20.53;64.36
51239;BME280;38154;47.548;18.828;2023-08-07T12:08:42;98371.59;;;20.00;64.83
51239;BME280;38154;47.548;18.828;2023-08-07T12:11:10;98380.22;;;19.62;66.64
51239;BME280;38154;47.548;18.828;2023-08-07T12:13:41;98379.34;;;19.19;66.16
51239;BME280;38154;47.548;18.828;2023-08-07T12:16:07;98387.56;;;18.89;67.29
51239;BME280;38154;47.548;18.828;2023-08-07T12:18:48;98381.16;;;18.95;67.83
51239;BME280;38154;47.548;18.828;2023-08-07T12:21:16;98386.75;;;19.32;66.31
51239;BME280;38154;47.548;18.828;2023-08-07T12:23:44;98385.81;;;19.12;66.90
51239;BME280;38154;47.548;18.828;2023-08-07T12:26:13;98393.06;;;18.83;69.24
51239;BME280;38154;47.548;18.828;2023-08-07T12:28:39;98386.31;;;18.98;68.94
51239;BME280;38154;47.548;18.828;2023-08-07T12:31:05;98387.38;;;18.94;70.51
51239;BME280;38154;47.548;18.828;2023-08-07T12:33:33;98395.53;;;18.64;71.83
51239;BME280;38154;47.548;18.828;2023-08-07T12:35:59;98392.59;;;18.23;71.16
51239;BME280;38154;47.548;18.828;2023-08-07T12:38:26;98394.78;;;18.12;72.60
51239;BME280;38154;47.548;18.828;2023-08-07T12:40:52;98392.69;;;18.22;72.99
51239;BME280;38154;47.548;18.828;2023-08-07T12:43:18;98413.81;;;18.94;69.03
51239;BME280;38154;47.548;18.828;2023-08-07T12:45:44;98402.13;;;18.52;69.64
51239;BME280;38154;47.548;18.828;2023-08-07T12:48:10;98403.56;;;17.86;72.95
51239;BME280;38154;47.548;18.828;2023-08-07T12:50:36;98410.44;;;17.91;74.40
51239;BME280;38154;47.548;18.828;2023-08-07T12:53:03;98412.91;;;17.96;72.80
51239;BME280;38154;47.548;18.828;2023-08-07T12:55:28;98406.03;;;17.92;73.88
51239;BME280;38154;47.548;18.828;2023-08-07T12:57:55;98404.19;;;17.67;71.45
51239;BME280;38154;47.548;18.828;2023-08-07T13:00:22;98408.03;;;17.30;76.02